sensor_id;sensor_type;location;lat;lon;timestamp;temperature;humidity
9157;DHT22;4613;48.392;9.998;2023-06-26T00:00:21;21.50;95.00
9157;DHT22;4613;48.392;9.998;2023-06-26T00:03:11;21.40;95.00
9157;DHT22;4613;48.392;9.998;2023-06-26T00:06:03;21.00;95.10
9157;DHT22;4613;48.392;9.998;2023-06-26T00:08:53;21.10;95.50
9157;DHT22;4613;48.392;9.998;2023-06-26T00:11:42;21.10;95.60
9157;DHT22;4613;48.392;9.998;2023-06-26T00:14:31;21.10;95.50
9157;DHT22;4613;48.392;9.998;2023-06-26T00:17:21;21.10;95.50
9157;DHT22;4613;48.392;9.998;2023-06-26T00:20:11;21.00;95.60
9157;DHT22;4613;48.392;9.998;2023-06-26T00:23:03;21.00;95.70
9157;DHT22;4613;48.392;9.998;2023-06-26T00:25:56;21.10;95.70
9157;DHT22;4613;48.392;9.998;2023-06-26T00:28:46;21.20;95.50
9157;DHT22;4613;48.392;9.998;2023-06-26T00:31:35;21.00;95.60
9157;DHT22;4613;48.392;9.998;2023-06-26T00:34:24;20.90;95.70
9157;DHT22;4613;48.392;9.998;2023-06-26T00:37:13;20.90;95.70
9157;DHT22;4613;48.392;9.998;2023-06-26T00:40:03;20.90;95.70
9157;DHT22;4613;48.392;9.998;2023-06-26T00:42:55;20.70;95.60
9157;DHT22;4613;48.392;9.998;2023-06-26T00:45:45;20.80;95.80
9157;DHT22;4613;48.392;9.998;2023-06-26T00:48:34;20.90;95.80
9157;DHT22;4613;48.392;9.998;2023-06-26T00:51:23;20.70;96.10
9157;DHT22;4613;48.392;9.998;2023-06-26T00:54:13;20.50;96.20
9157;DHT22;4613;48.392;9.998;2023-06-26T00:57:09;20.80;96.10
9157;DHT22;4613;48.392;9.998;2023-06-26T00:59:58;20.90;96.10
9157;DHT22;4613;48.392;9.998;2023-06-26T01:02:47;20.90;96.20
9157;DHT22;4613;48.392;9.998;2023-06-26T01:05:36;20.90;96.10
9157;DHT22;4613;48.392;9.998;2023-06-26T01:08:29;20.80;96.20
9157;DHT22;4613;48.392;9.998;2023-06-26T01:11:19;20.70;96.10
9157;DHT22;4613;48.392;9.998;2023-06-26T01:14:08;20.50;96.30
9157;DHT22;4613;48.392;9.998;2023-06-26T01:17:00;20.30;96.60
9157;DHT22;4613;48.392;9.998;2023-06-26T01:19:50;20.10;96.80
9157;DHT22;4613;48.392;9.998;2023-06-26T01:26:17;19.70;97.20
9157;DHT22;4613;48.392;9.998;2023-06-26T01:29:10;19.60;97.40
9157;DHT22;4613;48.392;9.998;2023-06-26T01:32:00;19.50;97.70
9157;DHT22;4613;48.392;9.998;2023-06-26T01:34:52;19.70;97.60
9157;DHT22;4613;48.392;9.998;2023-06-26T01:37:42;19.40;97.90
9157;DHT22;4613;48.392;9.998;2023-06-26T01:40:32;19.40;98.00
9157;DHT22;4613;48.392;9.998;2023-06-26T01:43:33;19.60;98.00
9157;DHT22;4613;48.392;9.998;2023-06-26T01:46:25;19.70;97.70
9157;DHT22;4613;48.392;9.998;2023-06-26T01:52:21;19.70;98.10
9157;DHT22;4613;48.392;9.998;2023-06-26T01:55:17;19.60;98.10
9157;DHT22;4613;48.392;9.998;2023-06-26T01:58:08;19.80;97.90
9157;DHT22;4613;48.392;9.998;2023-06-26T02:00:59;19.90;97.70
9157;DHT22;4613;48.392;9.998;2023-06-26T02:03:49;19.70;97.90
9157;DHT22;4613;48.392;9.998;2023-06-26T02:06:38;19.80;97.90
9157;DHT22;4613;48.392;9.998;2023-06-26T02:09:27;19.80;97.90
9157;DHT22;4613;48.392;9.998;2023-06-26T02:12:16;19.70;97.90
9157;DHT22;4613;48.392;9.998;2023-06-26T02:15:07;19.70;98.00
9157;DHT22;4613;48.392;9.998;2023-06-26T02:17:56;19.70;98.00
9157;DHT22;4613;48.392;9.998;2023-06-26T02:20:45;19.20;98.50
9157;DHT22;4613;48.392;9.998;2023-06-26T02:23:34;19.30;98.40
9157;DHT22;4613;48.392;9.998;2023-06-26T02:26:23;19.30;98.40
9157;DHT22;4613;48.392;9.998;2023-06-26T02:29:13;19.30;98.60
9157;DHT22;4613;48.392;9.998;2023-06-26T02:32:03;19.20;98.60
9157;DHT22;4613;48.392;9.998;2023-06-26T02:34:53;19.00;99.00
9157;DHT22;4613;48.392;9.998;2023-06-26T02:37:42;18.80;99.50
9157;DHT22;4613;48.392;9.998;2023-06-26T02:40:32;18.50;99.80
9157;DHT22;4613;48.392;9.998;2023-06-26T02:43:23;18.70;99.50
9157;DHT22;4613;48.392;9.998;2023-06-26T02:46:12;19.00;99.30
9157;DHT22;4613;48.392;9.998;2023-06-26T02:49:02;18.70;99.30
9157;DHT22;4613;48.392;9.998;2023-06-26T02:51:51;18.10;99.90
9157;DHT22;4613;48.392;9.998;2023-06-26T02:54:47;18.20;99.90
9157;DHT22;4613;48.392;9.998;2023-06-26T02:57:37;18.30;99.90
9157;DHT22;4613;48.392;9.998;2023-06-26T03:00:25;18.50;99.90
9157;DHT22;4613;48.392;9.998;2023-06-26T03:03:17;18.40;99.90
9157;DHT22;4613;48.392;9.998;2023-06-26T03:06:07;18.30;99.90
9157;DHT22;4613;48.392;9.998;2023-06-26T03:08:58;18.30;99.90
9157;DHT22;4613;48.392;9.998;2023-06-26T03:11:49;18.30;99.90
9157;DHT22;4613;48.392;9.998;2023-06-26T03:14:39;18.30;99.90
9157;DHT22;4613;48.392;9.998;2023-06-26T03:17:28;18.40;99.90
9157;DHT22;4613;48.392;9.998;2023-06-26T03:20:22;17.80;99.90
9157;DHT22;4613;48.392;9.998;2023-06-26T03:23:16;18.10;99.90
9157;DHT22;4613;48.392;9.998;2023-06-26T03:26:06;18.30;99.90
9157;DHT22;4613;48.392;9.998;2023-06-26T03:28:58;18.40;99.90
9157;DHT22;4613;48.392;9.998;2023-06-26T03:31:48;18.40;99.90
9157;DHT22;4613;48.392;9.998;2023-06-26T03:34:37;17.90;99.90
9157;DHT22;4613;48.392;9.998;2023-06-26T03:37:29;17.90;99.90
9157;DHT22;4613;48.392;9.998;2023-06-26T03:40:18;18.00;99.90
9157;DHT22;4613;48.392;9.998;2023-06-26T03:43:08;18.20;99.90
9157;DHT22;4613;48.392;9.998;2023-06-26T03:46:08;18.00;99.90
9157;DHT22;4613;48.392;9.998;2023-06-26T03:48:58;17.90;99.90
9157;DHT22;4613;48.392;9.998;2023-06-26T03:51:47;18.40;99.90
9157;DHT22;4613;48.392;9.998;2023-06-26T03:54:37;18.40;99.90
9157;DHT22;4613;48.392;9.998;2023-06-26T03:57:26;18.30;99.90
9157;DHT22;4613;48.392;9.998;2023-06-26T04:00:16;18.50;99.90
9157;DHT22;4613;48.392;9.998;2023-06-26T04:03:05;18.30;99.90
9157;DHT22;4613;48.392;9.998;2023-06-26T04:05:54;18.30;99.90
9157;DHT22;4613;48.392;9.998;2023-06-26T04:08:43;18.10;99.90
9157;DHT22;4613;48.392;9.998;2023-06-26T04:11:32;17.90;99.90
9157;DHT22;4613;48.392;9.998;2023-06-26T04:14:22;18.00;99.90
9157;DHT22;4613;48.392;9.998;2023-06-26T04:17:11;18.40;99.90
9157;DHT22;4613;48.392;9.998;2023-06-26T04:20:00;18.50;99.90
9157;DHT22;4613;48.392;9.998;2023-06-26T04:22:50;18.60;99.90
9157;DHT22;4613;48.392;9.998;2023-06-26T04:25:39;18.60;99.90
9157;DHT22;4613;48.392;9.998;2023-06-26T04:28:28;18.80;99.90
9157;DHT22;4613;48.392;9.998;2023-06-26T04:31:18;18.80;99.90
9157;DHT22;4613;48.392;9.998;2023-06-26T04:34:07;18.60;99.90
9157;DHT22;4613;48.392;9.998;2023-06-26T04:36:56;18.50;99.90
9157;DHT22;4613;48.392;9.998;2023-06-26T04:39:45;18.90;99.90
9157;DHT22;4613;48.392;9.998;2023-06-26T04:42:34;19.00;99.90
9157;DHT22;4613;48.392;9.998;2023-06-26T04:45:23;19.40;99.90
9157;DHT22;4613;48.392;9.998;2023-06-26T04:48:12;19.30;99.90
9157;DHT22;4613;48.392;9.998;2023-06-26T04:51:01;19.00;99.90
9157;DHT22;4613;48.392;9.998;2023-06-26T04:53:51;18.80;99.90
9157;DHT22;4613;48.392;9.998;2023-06-26T04:56:40;18.80;99.90
9157;DHT22;4613;48.392;9.998;2023-06-26T04:59:29;18.90;99.90
9157;DHT22;4613;48.392;9.998;2023-06-26T05:02:20;19.20;99.90
9157;DHT22;4613;48.392;9.998;2023-06-26T05:05:09;19.60;99.90
9157;DHT22;4613;48.392;9.998;2023-06-26T05:08:16;19.40;99.90
9157;DHT22;4613;48.392;9.998;2023-06-26T05:11:06;18.70;99.90
9157;DHT22;4613;48.392;9.998;2023-06-26T05:13:55;19.50;99.90
9157;DHT22;4613;48.392;9.998;2023-06-26T05:16:44;19.30;99.90
9157;DHT22;4613;48.392;9.998;2023-06-26T05:19:33;19.00;99.90
9157;DHT22;4613;48.392;9.998;2023-06-26T05:22:22;19.00;99.90
9157;DHT22;4613;48.392;9.998;2023-06-26T05:25:13;18.60;99.90
9157;DHT22;4613;48.392;9.998;2023-06-26T05:28:04;18.40;99.90
9157;DHT22;4613;48.392;9.998;2023-06-26T05:30:59;19.10;99.90
9157;DHT22;4613;48.392;9.998;2023-06-26T05:33:49;19.70;99.90
9157;DHT22;4613;48.392;9.998;2023-06-26T05:36:41;19.80;99.90
9157;DHT22;4613;48.392;9.998;2023-06-26T05:39:32;19.90;99.90
9157;DHT22;4613;48.392;9.998;2023-06-26T05:42:22;20.10;99.90
9157;DHT22;4613;48.392;9.998;2023-06-26T05:45:11;19.70;99.90
9157;DHT22;4613;48.392;9.998;2023-06-26T05:48:00;19.60;99.90
9157;DHT22;4613;48.392;9.998;2023-06-26T05:50:50;19.30;99.90
9157;DHT22;4613;48.392;9.998;2023-06-26T05:53:40;20.20;99.90
9157;DHT22;4613;48.392;9.998;2023-06-26T05:56:30;19.90;99.90
9157;DHT22;4613;48.392;9.998;2023-06-26T05:59:20;19.60;99.90
9157;DHT22;4613;48.392;9.998;2023-06-26T06:02:11;20.10;99.90
9157;DHT22;4613;48.392;9.998;2023-06-26T06:05:00;20.80;99.90
9157;DHT22;4613;48.392;9.998;2023-06-26T06:07:50;20.20;99.90
9157;DHT22;4613;48.392;9.998;2023-06-26T06:10:39;20.40;99.90
9157;DHT22;4613;48.392;9.998;2023-06-26T06:13:29;20.50;99.90
9157;DHT22;4613;48.392;9.998;2023-06-26T06:16:18;21.20;99.90
9157;DHT22;4613;48.392;9.998;2023-06-26T06:19:07;21.00;99.90
9157;DHT22;4613;48.392;9.998;2023-06-26T06:22:00;21.40;99.90
9157;DHT22;4613;48.392;9.998;2023-06-26T06:24:50;21.70;99.90
9157;DHT22;4613;48.392;9.998;2023-06-26T06:27:39;22.00;99.90
9157;DHT22;4613;48.392;9.998;2023-06-26T06:30:29;21.90;99.90
9157;DHT22;4613;48.392;9.998;2023-06-26T06:33:18;22.00;99.90
9157;DHT22;4613;48.392;9.998;2023-06-26T06:36:07;22.40;99.90
9157;DHT22;4613;48.392;9.998;2023-06-26T06:38:57;22.50;99.90
9157;DHT22;4613;48.392;9.998;2023-06-26T06:41:46;22.30;99.90
9157;DHT22;4613;48.392;9.998;2023-06-26T06:44:35;22.50;99.90
9157;DHT22;4613;48.392;9.998;2023-06-26T06:47:24;22.40;99.90
9157;DHT22;4613;48.392;9.998;2023-06-26T06:50:13;22.70;99.90
9157;DHT22;4613;48.392;9.998;2023-06-26T06:53:05;23.00;99.90
9157;DHT22;4613;48.392;9.998;2023-06-26T06:55:54;23.30;99.90
9157;DHT22;4613;48.392;9.998;2023-06-26T06:58:43;23.30;99.90
9157;DHT22;4613;48.392;9.998;2023-06-26T07:01:36;23.40;99.90
9157;DHT22;4613;48.392;9.998;2023-06-26T07:04:25;23.20;99.90
9157;DHT22;4613;48.392;9.998;2023-06-26T07:07:19;23.30;99.90
9157;DHT22;4613;48.392;9.998;2023-06-26T07:10:10;23.50;99.90
9157;DHT22;4613;48.392;9.998;2023-06-26T07:13:00;23.50;99.90
9157;DHT22;4613;48.392;9.998;2023-06-26T07:15:49;23.70;99.90
9157;DHT22;4613;48.392;9.998;2023-06-26T07:18:38;23.90;99.90
9157;DHT22;4613;48.392;9.998;2023-06-26T07:21:28;24.10;99.90
9157;DHT22;4613;48.392;9.998;2023-06-26T07:24:17;24.50;99.70
9157;DHT22;4613;48.392;9.998;2023-06-26T07:27:06;24.60;99.40
9157;DHT22;4613;48.392;9.998;2023-06-26T07:29:55;24.50;99.20
9157;DHT22;4613;48.392;9.998;2023-06-26T07:32:45;24.40;98.90
9157;DHT22;4613;48.392;9.998;2023-06-26T07:35:34;24.90;98.90
9157;DHT22;4613;48.392;9.998;2023-06-26T07:38:23;25.00;98.20
9157;DHT22;4613;48.392;9.998;2023-06-26T07:41:12;24.90;98.30
9157;DHT22;4613;48.392;9.998;2023-06-26T07:44:02;24.90;98.30
9157;DHT22;4613;48.392;9.998;2023-06-26T07:46:52;25.50;98.20
9157;DHT22;4613;48.392;9.998;2023-06-26T07:49:41;25.60;97.80
9157;DHT22;4613;48.392;9.998;2023-06-26T07:52:30;25.60;97.40
9157;DHT22;4613;48.392;9.998;2023-06-26T07:55:20;25.50;97.50
9157;DHT22;4613;48.392;9.998;2023-06-26T07:58:09;25.80;97.20
9157;DHT22;4613;48.392;9.998;2023-06-26T08:00:59;26.10;96.80
9157;DHT22;4613;48.392;9.998;2023-06-26T08:03:48;26.30;96.80
9157;DHT22;4613;48.392;9.998;2023-06-26T08:06:36;26.30;96.30
9157;DHT22;4613;48.392;9.998;2023-06-26T08:09:29;26.20;96.00
9157;DHT22;4613;48.392;9.998;2023-06-26T08:12:19;26.50;95.70
9157;DHT22;4613;48.392;9.998;2023-06-26T08:15:08;26.50;95.70
9157;DHT22;4613;48.392;9.998;2023-06-26T08:17:58;26.80;96.00
9157;DHT22;4613;48.392;9.998;2023-06-26T08:20:47;26.80;95.80
9157;DHT22;4613;48.392;9.998;2023-06-26T08:23:36;27.20;95.40
9157;DHT22;4613;48.392;9.998;2023-06-26T08:26:25;26.90;95.10
9157;DHT22;4613;48.392;9.998;2023-06-26T08:29:14;27.40;95.10
9157;DHT22;4613;48.392;9.998;2023-06-26T08:32:04;27.20;95.40
9157;DHT22;4613;48.392;9.998;2023-06-26T08:34:54;27.50;94.90
9157;DHT22;4613;48.392;9.998;2023-06-26T08:37:43;27.20;95.00
9157;DHT22;4613;48.392;9.998;2023-06-26T08:40:32;27.10;95.00
9157;DHT22;4613;48.392;9.998;2023-06-26T08:43:21;27.20;95.10
9157;DHT22;4613;48.392;9.998;2023-06-26T08:46:11;27.60;94.40
9157;DHT22;4613;48.392;9.998;2023-06-26T08:52:43;27.60;94.60
9157;DHT22;4613;48.392;9.998;2023-06-26T08:55:38;27.60;94.40
9157;DHT22;4613;48.392;9.998;2023-06-26T08:58:30;27.70;94.40
9157;DHT22;4613;48.392;9.998;2023-06-26T09:01:20;27.80;94.30
9157;DHT22;4613;48.392;9.998;2023-06-26T09:04:10;27.60;94.40
9157;DHT22;4613;48.392;9.998;2023-06-26T09:06:59;27.80;94.10
9157;DHT22;4613;48.392;9.998;2023-06-26T09:09:49;28.20;94.10
9157;DHT22;4613;48.392;9.998;2023-06-26T09:12:38;28.30;93.90
9157;DHT22;4613;48.392;9.998;2023-06-26T09:15:43;28.50;94.00
9157;DHT22;4613;48.392;9.998;2023-06-26T09:18:32;28.40;93.60
9157;DHT22;4613;48.392;9.998;2023-06-26T09:21:22;28.20;93.60
9157;DHT22;4613;48.392;9.998;2023-06-26T09:24:13;28.50;93.60
9157;DHT22;4613;48.392;9.998;2023-06-26T09:27:02;28.70;92.60
9157;DHT22;4613;48.392;9.998;2023-06-26T09:29:53;28.80;92.50
9157;DHT22;4613;48.392;9.998;2023-06-26T09:32:42;28.70;91.90
9157;DHT22;4613;48.392;9.998;2023-06-26T09:35:31;28.50;91.80
9157;DHT22;4613;48.392;9.998;2023-06-26T09:38:20;29.40;91.50
9157;DHT22;4613;48.392;9.998;2023-06-26T09:41:10;29.40;90.80
9157;DHT22;4613;48.392;9.998;2023-06-26T09:44:01;28.90;90.90
9157;DHT22;4613;48.392;9.998;2023-06-26T09:46:51;29.10;90.90
9157;DHT22;4613;48.392;9.998;2023-06-26T09:49:43;28.60;90.50
9157;DHT22;4613;48.392;9.998;2023-06-26T09:52:35;28.70;88.50
9157;DHT22;4613;48.392;9.998;2023-06-26T09:55:26;29.00;85.40
9157;DHT22;4613;48.392;9.998;2023-06-26T09:58:15;29.00;83.80
9157;DHT22;4613;48.392;9.998;2023-06-26T10:01:06;28.90;83.90
9157;DHT22;4613;48.392;9.998;2023-06-26T10:03:58;29.20;83.80
9157;DHT22;4613;48.392;9.998;2023-06-26T10:06:49;29.40;83.10
9157;DHT22;4613;48.392;9.998;2023-06-26T10:09:41;29.70;82.00
9157;DHT22;4613;48.392;9.998;2023-06-26T10:12:31;29.90;81.80
9157;DHT22;4613;48.392;9.998;2023-06-26T10:15:21;30.00;80.90
9157;DHT22;4613;48.392;9.998;2023-06-26T10:18:13;29.90;80.30
9157;DHT22;4613;48.392;9.998;2023-06-26T10:21:06;29.70;80.50
9157;DHT22;4613;48.392;9.998;2023-06-26T10:23:57;29.70;80.60
9157;DHT22;4613;48.392;9.998;2023-06-26T10:26:50;30.10;79.60
9157;DHT22;4613;48.392;9.998;2023-06-26T10:29:41;30.30;79.20
9157;DHT22;4613;48.392;9.998;2023-06-26T10:32:32;30.40;78.10
9157;DHT22;4613;48.392;9.998;2023-06-26T10:35:22;30.50;77.00
9157;DHT22;4613;48.392;9.998;2023-06-26T10:38:13;30.70;76.20
9157;DHT22;4613;48.392;9.998;2023-06-26T10:41:10;30.70;75.50
9157;DHT22;4613;48.392;9.998;2023-06-26T10:44:11;30.70;75.40
9157;DHT22;4613;48.392;9.998;2023-06-26T10:47:00;30.60;75.20
9157;DHT22;4613;48.392;9.998;2023-06-26T10:49:50;30.60;75.20
9157;DHT22;4613;48.392;9.998;2023-06-26T10:52:39;30.50;74.80
9157;DHT22;4613;48.392;9.998;2023-06-26T10:55:28;30.60;74.90
9157;DHT22;4613;48.392;9.998;2023-06-26T11:01:40;30.00;74.20
9157;DHT22;4613;48.392;9.998;2023-06-26T11:04:40;30.00;74.90
9157;DHT22;4613;48.392;9.998;2023-06-26T11:07:29;29.80;75.10
9157;DHT22;4613;48.392;9.998;2023-06-26T11:10:20;30.10;74.60
9157;DHT22;4613;48.392;9.998;2023-06-26T11:13:10;30.10;75.30
9157;DHT22;4613;48.392;9.998;2023-06-26T11:16:01;30.00;75.20
9157;DHT22;4613;48.392;9.998;2023-06-26T11:18:51;29.90;75.10
9157;DHT22;4613;48.392;9.998;2023-06-26T11:21:40;29.90;75.10
9157;DHT22;4613;48.392;9.998;2023-06-26T11:24:30;29.60;75.50
9157;DHT22;4613;48.392;9.998;2023-06-26T11:27:20;29.50;75.30
9157;DHT22;4613;48.392;9.998;2023-06-26T11:30:23;29.70;75.10
9157;DHT22;4613;48.392;9.998;2023-06-26T11:33:13;30.00;75.10
9157;DHT22;4613;48.392;9.998;2023-06-26T11:36:09;30.20;75.00
9157;DHT22;4613;48.392;9.998;2023-06-26T11:39:00;30.50;74.70
9157;DHT22;4613;48.392;9.998;2023-06-26T11:41:50;30.70;73.40
9157;DHT22;4613;48.392;9.998;2023-06-26T11:44:43;30.70;72.80
9157;DHT22;4613;48.392;9.998;2023-06-26T11:47:32;30.60;73.20
9157;DHT22;4613;48.392;9.998;2023-06-26T11:50:22;30.80;73.50
9157;DHT22;4613;48.392;9.998;2023-06-26T11:53:15;30.80;73.20
9157;DHT22;4613;48.392;9.998;2023-06-26T11:56:11;30.90;72.80
9157;DHT22;4613;48.392;9.998;2023-06-26T11:59:11;30.70;72.80
9157;DHT22;4613;48.392;9.998;2023-06-26T12:02:08;30.50;72.90
9157;DHT22;4613;48.392;9.998;2023-06-26T12:04:58;30.60;73.40
9157;DHT22;4613;48.392;9.998;2023-06-26T12:07:48;30.70;73.40
9157;DHT22;4613;48.392;9.998;2023-06-26T12:10:38;30.80;71.70
9157;DHT22;4613;48.392;9.998;2023-06-26T12:13:27;30.70;72.20
9157;DHT22;4613;48.392;9.998;2023-06-26T12:16:16;30.70;72.60
9157;DHT22;4613;48.392;9.998;2023-06-26T12:19:07;30.50;72.80
9157;DHT22;4613;48.392;9.998;2023-06-26T12:21:57;30.10;73.00
9157;DHT22;4613;48.392;9.998;2023-06-26T12:24:47;30.20;73.80
9157;DHT22;4613;48.392;9.998;2023-06-26T12:27:37;30.00;74.00
9157;DHT22;4613;48.392;9.998;2023-06-26T12:30:26;30.00;74.20
9157;DHT22;4613;48.392;9.998;2023-06-26T12:33:15;30.00;74.80
9157;DHT22;4613;48.392;9.998;2023-06-26T12:36:04;30.20;75.30
9157;DHT22;4613;48.392;9.998;2023-06-26T12:38:54;30.30;75.10
9157;DHT22;4613;48.392;9.998;2023-06-26T12:44:34;30.40;75.70
9157;DHT22;4613;48.392;9.998;2023-06-26T12:47:27;30.30;77.00
9157;DHT22;4613;48.392;9.998;2023-06-26T12:50:17;30.10;77.90
9157;DHT22;4613;48.392;9.998;2023-06-26T12:53:06;30.30;78.30
9157;DHT22;4613;48.392;9.998;2023-06-26T12:55:55;29.90;78.30
9157;DHT22;4613;48.392;9.998;2023-06-26T12:58:44;29.80;78.80
9157;DHT22;4613;48.392;9.998;2023-06-26T13:01:33;29.70;78.60
9157;DHT22;4613;48.392;9.998;2023-06-26T13:04:23;29.70;78.90
9157;DHT22;4613;48.392;9.998;2023-06-26T13:07:12;29.70;79.00
9157;DHT22;4613;48.392;9.998;2023-06-26T13:10:02;29.70;79.10
9157;DHT22;4613;48.392;9.998;2023-06-26T13:12:51;29.70;79.30
9157;DHT22;4613;48.392;9.998;2023-06-26T13:15:40;29.70;80.00
9157;DHT22;4613;48.392;9.998;2023-06-26T13:18:30;29.90;80.00
9157;DHT22;4613;48.392;9.998;2023-06-26T13:21:19;30.00;80.40
9157;DHT22;4613;48.392;9.998;2023-06-26T13:24:08;30.00;79.60
9157;DHT22;4613;48.392;9.998;2023-06-26T13:26:57;30.10;79.80
9157;DHT22;4613;48.392;9.998;2023-06-26T13:29:46;30.10;79.00
9157;DHT22;4613;48.392;9.998;2023-06-26T13:32:35;29.90;78.90
9157;DHT22;4613;48.392;9.998;2023-06-26T13:35:24;29.90;79.20
9157;DHT22;4613;48.392;9.998;2023-06-26T13:38:14;29.90;79.50
9157;DHT22;4613;48.392;9.998;2023-06-26T13:41:03;29.70;79.80
9157;DHT22;4613;48.392;9.998;2023-06-26T13:43:53;29.90;79.20
9157;DHT22;4613;48.392;9.998;2023-06-26T13:46:42;29.90;78.50
9157;DHT22;4613;48.392;9.998;2023-06-26T13:49:31;29.90;79.00
9157;DHT22;4613;48.392;9.998;2023-06-26T13:52:20;30.00;79.80
9157;DHT22;4613;48.392;9.998;2023-06-26T13:55:10;30.10;79.00
9157;DHT22;4613;48.392;9.998;2023-06-26T13:57:59;29.80;79.30
9157;DHT22;4613;48.392;9.998;2023-06-26T14:00:48;29.80;79.70
9157;DHT22;4613;48.392;9.998;2023-06-26T14:03:38;29.80;80.00
9157;DHT22;4613;48.392;9.998;2023-06-26T14:06:27;30.00;79.50
9157;DHT22;4613;48.392;9.998;2023-06-26T14:09:17;30.10;78.90
9157;DHT22;4613;48.392;9.998;2023-06-26T14:12:07;30.10;78.60
9157;DHT22;4613;48.392;9.998;2023-06-26T14:14:56;30.20;78.20
9157;DHT22;4613;48.392;9.998;2023-06-26T14:17:46;30.50;78.20
9157;DHT22;4613;48.392;9.998;2023-06-26T14:20:36;30.60;77.10
9157;DHT22;4613;48.392;9.998;2023-06-26T14:23:25;30.60;77.70
9157;DHT22;4613;48.392;9.998;2023-06-26T14:26:14;30.50;77.70
9157;DHT22;4613;48.392;9.998;2023-06-26T14:29:04;30.20;78.30
9157;DHT22;4613;48.392;9.998;2023-06-26T14:31:53;29.90;78.40
9157;DHT22;4613;48.392;9.998;2023-06-26T14:34:42;29.80;79.30
9157;DHT22;4613;48.392;9.998;2023-06-26T14:37:31;29.80;79.20
9157;DHT22;4613;48.392;9.998;2023-06-26T14:40:20;29.70;79.30
9157;DHT22;4613;48.392;9.998;2023-06-26T14:43:10;29.90;79.80
9157;DHT22;4613;48.392;9.998;2023-06-26T14:45:59;29.80;79.80
9157;DHT22;4613;48.392;9.998;2023-06-26T14:48:48;29.90;80.20
9157;DHT22;4613;48.392;9.998;2023-06-26T14:51:37;29.90;80.30
9157;DHT22;4613;48.392;9.998;2023-06-26T14:54:28;29.60;80.70
9157;DHT22;4613;48.392;9.998;2023-06-26T14:57:17;29.50;80.70
9157;DHT22;4613;48.392;9.998;2023-06-26T15:00:06;29.60;80.90
9157;DHT22;4613;48.392;9.998;2023-06-26T15:02:56;29.80;80.60
9157;DHT22;4613;48.392;9.998;2023-06-26T15:05:47;29.80;80.90
9157;DHT22;4613;48.392;9.998;2023-06-26T15:08:36;29.70;81.10
9157;DHT22;4613;48.392;9.998;2023-06-26T15:11:26;29.60;81.60
9157;DHT22;4613;48.392;9.998;2023-06-26T15:14:15;29.50;82.20
9157;DHT22;4613;48.392;9.998;2023-06-26T15:17:05;29.40;82.80
9157;DHT22;4613;48.392;9.998;2023-06-26T15:19:54;29.40;82.50
9157;DHT22;4613;48.392;9.998;2023-06-26T15:22:43;29.40;82.50
9157;DHT22;4613;48.392;9.998;2023-06-26T15:25:32;29.60;82.80
9157;DHT22;4613;48.392;9.998;2023-06-26T15:28:23;29.80;82.60
9157;DHT22;4613;48.392;9.998;2023-06-26T15:31:12;29.80;82.40
9157;DHT22;4613;48.392;9.998;2023-06-26T15:34:02;29.70;82.60
9157;DHT22;4613;48.392;9.998;2023-06-26T15:36:51;29.70;83.40
9157;DHT22;4613;48.392;9.998;2023-06-26T15:39:41;29.70;83.10
9157;DHT22;4613;48.392;9.998;2023-06-26T15:42:30;29.80;83.40
9157;DHT22;4613;48.392;9.998;2023-06-26T15:45:20;29.70;83.30
9157;DHT22;4613;48.392;9.998;2023-06-26T15:48:11;29.40;84.10
9157;DHT22;4613;48.392;9.998;2023-06-26T15:51:00;29.60;83.70
9157;DHT22;4613;48.392;9.998;2023-06-26T15:53:49;29.60;83.20
9157;DHT22;4613;48.392;9.998;2023-06-26T15:56:38;29.20;83.60
9157;DHT22;4613;48.392;9.998;2023-06-26T15:59:28;29.30;83.70
9157;DHT22;4613;48.392;9.998;2023-06-26T16:02:18;29.50;83.70
9157;DHT22;4613;48.392;9.998;2023-06-26T16:05:07;29.20;83.60
9157;DHT22;4613;48.392;9.998;2023-06-26T16:07:57;29.40;82.90
9157;DHT22;4613;48.392;9.998;2023-06-26T16:10:46;29.40;82.80
9157;DHT22;4613;48.392;9.998;2023-06-26T16:13:35;29.20;82.40
9157;DHT22;4613;48.392;9.998;2023-06-26T16:16:24;29.10;82.10
9157;DHT22;4613;48.392;9.998;2023-06-26T16:19:13;29.10;81.80
9157;DHT22;4613;48.392;9.998;2023-06-26T16:22:05;29.10;81.40
9157;DHT22;4613;48.392;9.998;2023-06-26T16:24:55;28.90;80.90
9157;DHT22;4613;48.392;9.998;2023-06-26T16:27:44;28.90;80.80
9157;DHT22;4613;48.392;9.998;2023-06-26T16:30:33;28.80;81.10
9157;DHT22;4613;48.392;9.998;2023-06-26T16:33:22;28.90;81.10
9157;DHT22;4613;48.392;9.998;2023-06-26T16:36:12;29.00;81.00
9157;DHT22;4613;48.392;9.998;2023-06-26T16:39:01;29.00;80.50
9157;DHT22;4613;48.392;9.998;2023-06-26T16:41:50;28.70;81.00
9157;DHT22;4613;48.392;9.998;2023-06-26T16:44:43;28.80;81.40
9157;DHT22;4613;48.392;9.998;2023-06-26T16:47:32;28.70;81.30
9157;DHT22;4613;48.392;9.998;2023-06-26T16:50:23;28.40;81.40
9157;DHT22;4613;48.392;9.998;2023-06-26T16:53:12;28.40;81.00
9157;DHT22;4613;48.392;9.998;2023-06-26T16:56:02;28.40;80.80
9157;DHT22;4613;48.392;9.998;2023-06-26T16:58:51;28.40;80.90
9157;DHT22;4613;48.392;9.998;2023-06-26T17:01:40;28.30;81.10
9157;DHT22;4613;48.392;9.998;2023-06-26T17:04:29;28.20;81.20
9157;DHT22;4613;48.392;9.998;2023-06-26T17:07:19;28.10;81.00
9157;DHT22;4613;48.392;9.998;2023-06-26T17:10:08;28.30;81.00
9157;DHT22;4613;48.392;9.998;2023-06-26T17:12:58;28.20;81.00
9157;DHT22;4613;48.392;9.998;2023-06-26T17:15:47;28.30;81.00
9157;DHT22;4613;48.392;9.998;2023-06-26T17:18:36;28.10;81.30
9157;DHT22;4613;48.392;9.998;2023-06-26T17:21:25;28.10;81.40
9157;DHT22;4613;48.392;9.998;2023-06-26T17:24:14;28.10;81.50
9157;DHT22;4613;48.392;9.998;2023-06-26T17:27:09;27.90;81.50
9157;DHT22;4613;48.392;9.998;2023-06-26T17:30:00;27.70;81.90
9157;DHT22;4613;48.392;9.998;2023-06-26T17:32:49;27.60;82.30
9157;DHT22;4613;48.392;9.998;2023-06-26T17:35:38;27.60;82.50
9157;DHT22;4613;48.392;9.998;2023-06-26T17:38:28;27.60;82.50
9157;DHT22;4613;48.392;9.998;2023-06-26T17:41:19;27.50;82.30
9157;DHT22;4613;48.392;9.998;2023-06-26T17:44:08;27.30;82.10
9157;DHT22;4613;48.392;9.998;2023-06-26T17:46:57;27.00;82.10
9157;DHT22;4613;48.392;9.998;2023-06-26T17:49:46;26.90;82.40
9157;DHT22;4613;48.392;9.998;2023-06-26T17:52:35;26.90;82.50
9157;DHT22;4613;48.392;9.998;2023-06-26T17:55:25;26.70;82.60
9157;DHT22;4613;48.392;9.998;2023-06-26T17:58:14;26.70;82.80
9157;DHT22;4613;48.392;9.998;2023-06-26T18:01:04;26.80;82.80
9157;DHT22;4613;48.392;9.998;2023-06-26T18:03:54;26.60;83.10
9157;DHT22;4613;48.392;9.998;2023-06-26T18:06:44;26.60;83.40
9157;DHT22;4613;48.392;9.998;2023-06-26T18:09:33;26.40;83.90
9157;DHT22;4613;48.392;9.998;2023-06-26T18:12:23;26.40;84.70
9157;DHT22;4613;48.392;9.998;2023-06-26T18:15:12;26.30;84.00
9157;DHT22;4613;48.392;9.998;2023-06-26T18:18:01;26.40;84.20
9157;DHT22;4613;48.392;9.998;2023-06-26T18:20:51;26.40;84.30
9157;DHT22;4613;48.392;9.998;2023-06-26T18:23:40;26.00;84.70
9157;DHT22;4613;48.392;9.998;2023-06-26T18:26:29;26.00;84.30
9157;DHT22;4613;48.392;9.998;2023-06-26T18:29:18;26.00;84.00
9157;DHT22;4613;48.392;9.998;2023-06-26T18:32:08;25.80;84.00
9157;DHT22;4613;48.392;9.998;2023-06-26T18:34:57;25.90;83.70
9157;DHT22;4613;48.392;9.998;2023-06-26T18:37:46;26.00;83.70
9157;DHT22;4613;48.392;9.998;2023-06-26T18:40:37;26.00;84.20
9157;DHT22;4613;48.392;9.998;2023-06-26T18:43:26;25.90;84.00
9157;DHT22;4613;48.392;9.998;2023-06-26T18:46:17;26.00;84.30